Huvudsida
METAR-TAF:

METAR-TAF

Flygplatser :

Oruro Airport

Oruro, Bolivia

latitud: 17-58S, longitud: 067-04W, höjd: 3072 m

Aktuellt väderrapport

Denna rapport gjordes för 15 timmar och 1 minuter sedan, klockan 18:00 UTC
Vind 6 kt från väst/sydväst
Temperatur 22°C
Fuktighet 25%
Tryck 1032 hPa
Sikt 10 km eller mer
Få moln på en höjd av 2000 ft
Få moln på en höjd av 2300 ft, Cumulonimbus.
Spridda moln på en höjd av 7000 ft

METAR: SLOR 061800Z 24006KT 9999 FEW020 FEW023CB SCT070 22/01 Q1032

Tid: 05:01 (09:01 UTC)


TAF: saknas

Aktuella väderrapporter och prognoser från 4000 flygplatser (METAR- och TAF-rapporter).

De tillgängliga stationerna syns som gula och röda prickar på kartan.

För musen över prickarna för att se namnen på stationerna.

Klicka sedan för att få väderrapporter och prognoser.

För att ändra kartan: Klicka på de gröna knapparna med ett svart kors på för att zooma in; den gröna knappen med ett streck på för att zooma ut; eller på de gröna pilarna för angränsande kartor.


METAR-TAF: